Time;durP1;ratioP1;P1;durP2;ratioP2;P2;SDS_P1;SDS_P2;PMS_P1;PMS_P2;Temp;Humidity;BMP_temperature;BMP_pressure;BME280_temperature;BME280_humidity;BME280_pressure;Samples;Min_cycle;Max_cycle;Signal;HPM_P1;HPM_P2
2022/03/02 00:02:18;;;;;;;;;;;179.80;1203.20;;;;;;5095028;28;19908;-64
2022/03/02 00:04:44;;;;;;;;;;;179.80;1203.20;;;;;;5094434;28;20365;-64
2022/03/02 00:07:09;;;;;;;;;;;179.90;1203.20;;;;;;5094418;28;19916;-64
2022/03/02 00:09:35;;;;;;;;;;;179.90;1203.20;;;;;;5094618;28;19935;-64
2022/03/02 00:12:01;;;;;;;;;;;179.80;1203.20;;;;;;5094766;28;19916;-63
2022/03/02 00:14:26;;;;;;;;;;;179.80;1177.60;;;;;;5094686;28;19912;-67
2022/03/02 00:16:52;;;;;;;;;;;179.80;1203.20;;;;;;5094765;28;19953;-65
2022/03/02 00:19:18;;;;;;;;;;;179.80;1203.20;;;;;;5094638;28;20384;-65
2022/03/02 00:21:43;;;;;;;;;;;179.80;1203.20;;;;;;5094667;28;19909;-65
2022/03/02 00:24:09;;;;;;;;;;;179.80;1203.20;;;;;;5093721;28;19908;-66
2022/03/02 00:26:34;;;;;;;;;;;179.80;1203.20;;;;;;5093048;28;19908;-66
2022/03/02 00:29:00;;;;;;;;;;;179.80;1177.60;;;;;;5093975;28;20425;-66
2022/03/02 00:31:26;;;;;;;;;;;179.80;1203.20;;;;;;5094399;28;19916;-66
2022/03/02 00:33:52;;;;;;;;;;;179.80;1203.20;;;;;;5094542;28;19930;-66
2022/03/02 00:36:17;;;;;;;;;;;179.80;1203.20;;;;;;5094510;28;19916;-66
2022/03/02 00:38:43;;;;;;;;;;;179.80;1203.20;;;;;;5094343;28;19919;-66
2022/03/02 00:41:08;;;;;;;;;;;179.70;1203.20;;;;;;5094441;28;19944;-66
2022/03/02 00:43:34;;;;;;;;;;;179.70;1203.20;;;;;;5094247;28;19915;-66
2022/03/02 00:46:00;;;;;;;;;;;179.70;1228.80;;;;;;5094420;28;20010;-66
2022/03/02 00:48:26;;;;;;;;;;;179.70;1228.80;;;;;;5094398;28;19912;-66
2022/03/02 00:50:51;;;;;;;;;;;179.60;1228.80;;;;;;5094282;28;20410;-66
2022/03/02 00:53:17;;;;;;;;;;;179.60;1228.80;;;;;;5093543;28;19915;-66
2022/03/02 00:55:43;;;;;;;;;;;179.60;1228.80;;;;;;5094069;28;20002;-66
2022/03/02 00:58:08;;;;;;;;;;;179.60;1228.80;;;;;;5094185;28;19908;-66
2022/03/02 01:00:34;;;;;;;;;;;179.60;1228.80;;;;;;5093898;28;20049;-66
2022/03/02 01:03:00;;;;;;;;;;;179.60;1228.80;;;;;;5092954;28;19915;-66
2022/03/02 01:05:26;;;;;;;;;;;179.60;1228.80;;;;;;5093534;28;20426;-66
2022/03/02 01:07:51;;;;;;;;;;;179.60;1228.80;;;;;;5093995;28;19946;-66
2022/03/02 01:10:17;;;;;;;;;;;179.50;1254.40;;;;;;5094036;28;20007;-66
2022/03/02 01:12:43;;;;;;;;;;;179.50;1228.80;;;;;;5094213;28;19920;-66
2022/03/02 01:15:09;;;;;;;;;;;179.60;1228.80;;;;;;5094031;28;19954;-66
2022/03/02 01:17:35;;;;;;;;;;;179.50;1228.80;;;;;;5093721;28;19908;-64
2022/03/02 01:20:01;;;;;;;;;;;179.50;1228.80;;;;;;5094115;28;19908;-64
2022/03/02 01:22:27;;;;;;;;;;;179.50;1228.80;;;;;;5094048;28;20417;-63
2022/03/02 01:24:55;;;;;;;;;;;179.50;1228.80;;;;;;5093961;28;19916;-64
2022/03/02 01:27:21;;;;;;;;;;;179.50;1228.80;;;;;;5094111;28;19936;-64
2022/03/02 01:29:46;;;;;;;;;;;179.50;1254.40;;;;;;5093918;28;20376;-64
2022/03/02 01:32:12;;;;;;;;;;;179.50;1254.40;;;;;;5093887;28;19923;-64
2022/03/02 01:34:37;;;;;;;;;;;179.50;1228.80;;;;;;5093955;28;20261;-64
2022/03/02 01:37:03;;;;;;;;;;;179.40;1254.40;;;;;;5096430;28;19908;-64
2022/03/02 01:39:29;;;;;;;;;;;179.40;1254.40;;;;;;5097634;28;19908;-64
2022/03/02 01:41:54;;;;;;;;;;;179.40;1228.80;;;;;;5097415;28;20265;-64
2022/03/02 01:44:20;;;;;;;;;;;179.40;1254.40;;;;;;5097527;28;19955;-64
2022/03/02 01:46:46;;;;;;;;;;;179.30;1254.40;;;;;;5097147;28;19912;-64
2022/03/02 01:49:12;;;;;;;;;;;179.40;1228.80;;;;;;5097225;28;19962;-64
2022/03/02 01:51:38;;;;;;;;;;;179.30;1254.40;;;;;;5095572;28;19927;-64
2022/03/02 01:54:04;;;;;;;;;;;179.30;1254.40;;;;;;5097092;28;19969;-64
2022/03/02 01:56:30;;;;;;;;;;;179.30;1254.40;;;;;;5097185;28;19930;-64
2022/03/02 01:58:55;;;;;;;;;;;179.30;1254.40;;;;;;5097026;28;19935;-65
2022/03/02 02:01:21;;;;;;;;;;;179.30;1254.40;;;;;;5097224;28;20350;-65
2022/03/02 02:03:47;;;;;;;;;;;179.30;1228.80;;;;;;5097746;28;20261;-65
2022/03/02 02:06:13;;;;;;;;;;;179.30;1254.40;;;;;;5097147;28;20408;-65
2022/03/02 02:08:39;;;;;;;;;;;179.20;1254.40;;;;;;5096786;28;19927;-65
2022/03/02 02:11:04;;;;;;;;;;;179.20;1228.80;;;;;;5096969;28;19920;-65
2022/03/02 02:13:32;;;;;;;;;;;179.20;1228.80;;;;;;5097290;28;19953;-65
2022/03/02 02:15:57;;;;;;;;;;;179.20;1228.80;;;;;;5096831;28;19908;-65
2022/03/02 02:18:23;;;;;;;;;;;179.20;1228.80;;;;;;5096908;28;19931;-65
2022/03/02 02:20:49;;;;;;;;;;;154.50;1228.80;;;;;;5097038;28;19908;-65
2022/03/02 02:23:14;;;;;;;;;;;154.50;1228.80;;;;;;5096901;28;20277;-65
2022/03/02 02:25:40;;;;;;;;;;;154.50;1228.80;;;;;;5096146;28;19908;-65
2022/03/02 02:28:07;;;;;;;;;;;154.50;1228.80;;;;;;5096858;28;19969;-65
2022/03/02 02:30:33;;;;;;;;;;;154.50;1228.80;;;;;;5096507;28;19916;-64
2022/03/02 02:32:58;;;;;;;;;;;154.50;1228.80;;;;;;5096740;28;20388;-65
2022/03/02 02:35:25;;;;;;;;;;;154.50;1228.80;;;;;;5096532;28;19912;-64
2022/03/02 02:37:50;;;;;;;;;;;154.40;1228.80;;;;;;5096540;28;19908;-64
2022/03/02 02:40:17;;;;;;;;;;;154.50;1228.80;;;;;;5096477;28;19915;-64
2022/03/02 02:42:47;;;;;;;;;;;154.50;1203.20;;;;;;5096492;28;19908;-64
2022/03/02 02:45:15;;;;;;;;;;;154.50;1228.80;;;;;;5096330;28;19931;-64
2022/03/02 02:47:41;;;;;;;;;;;154.50;1228.80;;;;;;5095407;28;20005;-65
2022/03/02 02:50:24;;;;;;;;;;;154.50;1203.20;;;;;;5096003;28;19999;-64
2022/03/02 02:52:50;;;;;;;;;;;154.50;1228.80;;;;;;5096233;28;19947;-64
2022/03/02 02:55:16;;;;;;;;;;;154.40;1203.20;;;;;;5096163;28;19994;-63
2022/03/02 02:57:42;;;;;;;;;;;154.40;1203.20;;;;;;5096176;28;19912;-64
2022/03/02 03:00:10;;;;;;;;;;;154.40;1203.20;;;;;;5095326;28;19908;-64
2022/03/02 03:02:36;;;;;;;;;;;154.40;1203.20;;;;;;5095977;28;20350;-64
2022/03/02 03:05:01;;;;;;;;;;;154.40;1228.80;;;;;;5096097;28;19999;-64
2022/03/02 03:07:27;;;;;;;;;;;154.30;1203.20;;;;;;5095805;28;20007;-64
2022/03/02 03:09:52;;;;;;;;;;;154.30;1203.20;;;;;;5095923;28;20377;-64
2022/03/02 03:12:18;;;;;;;;;;;154.30;1228.80;;;;;;5095930;28;19908;-64
2022/03/02 03:14:43;;;;;;;;;;;154.30;1228.80;;;;;;5095780;28;20339;-64
2022/03/02 03:17:09;;;;;;;;;;;154.30;1203.20;;;;;;5095611;28;19908;-65
2022/03/02 03:19:35;;;;;;;;;;;154.20;1228.80;;;;;;5095858;28;19922;-65
2022/03/02 03:22:04;;;;;;;;;;;154.20;1228.80;;;;;;5095627;28;20354;-64
2022/03/02 03:24:30;;;;;;;;;;;154.20;1228.80;;;;;;5094971;28;19950;-64
2022/03/02 03:26:56;;;;;;;;;;;154.10;1228.80;;;;;;5095415;28;19911;-64
2022/03/02 03:29:21;;;;;;;;;;;154.10;1228.80;;;;;;5095302;28;19908;-65
2022/03/02 03:31:47;;;;;;;;;;;154.00;1228.80;;;;;;5094330;28;19916;-65
2022/03/02 03:34:12;;;;;;;;;;;154.10;1228.80;;;;;;5095616;28;20338;-64
2022/03/02 03:36:38;;;;;;;;;;;154.00;1228.80;;;;;;5095396;28;20280;-64
2022/03/02 03:39:04;;;;;;;;;;;154.00;1228.80;;;;;;5095289;28;20023;-63
2022/03/02 03:41:29;;;;;;;;;;;153.90;1254.40;;;;;;5095084;28;19913;-63
2022/03/02 03:43:55;;;;;;;;;;;153.90;1228.80;;;;;;5095099;28;19908;-63
2022/03/02 03:46:20;;;;;;;;;;;153.90;1228.80;;;;;;5095321;28;19974;-63
2022/03/02 03:48:46;;;;;;;;;;;153.80;1228.80;;;;;;5095178;28;20315;-63
2022/03/02 03:51:12;;;;;;;;;;;153.90;1228.80;;;;;;5095295;28;19923;-63
2022/03/02 03:53:37;;;;;;;;;;;153.80;1228.80;;;;;;5093729;28;19908;-63
2022/03/02 03:56:03;;;;;;;;;;;153.80;1254.40;;;;;;5095089;28;19961;-63
2022/03/02 03:58:29;;;;;;;;;;;153.80;1228.80;;;;;;5094741;28;19908;-63
2022/03/02 04:00:54;;;;;;;;;;;153.80;1254.40;;;;;;5094779;28;19919;-63
2022/03/02 04:03:20;;;;;;;;;;;153.80;1228.80;;;;;;5095068;28;19908;-62
2022/03/02 04:05:46;;;;;;;;;;;153.80;1280.00;;;;;;5094921;28;20031;-63
2022/03/02 04:08:11;;;;;;;;;;;153.80;1254.40;;;;;;5094636;28;19924;-66
2022/03/02 04:10:37;;;;;;;;;;;153.70;1254.40;;;;;;5095190;28;19920;-65
2022/03/02 04:13:03;;;;;;;;;;;153.70;1254.40;;;;;;5094957;28;19930;-62
2022/03/02 04:15:28;;;;;;;;;;;153.70;1254.40;;;;;;5094448;28;20350;-62
2022/03/02 04:17:54;;;;;;;;;;;153.60;1254.40;;;;;;5094820;28;19919;-61
2022/03/02 04:20:19;;;;;;;;;;;153.60;1254.40;;;;;;5094618;28;20443;-62
2022/03/02 04:22:45;;;;;;;;;;;153.60;1254.40;;;;;;5094611;28;19912;-61
2022/03/02 04:25:11;;;;;;;;;;;153.60;1280.00;;;;;;5094470;28;20414;-61
2022/03/02 04:27:37;;;;;;;;;;;128.90;1254.40;;;;;;5094578;28;19908;-61
2022/03/02 04:30:04;;;;;;;;;;;128.90;1254.40;;;;;;5094207;28;19914;-61
2022/03/02 04:32:30;;;;;;;;;;;128.90;1254.40;;;;;;5094379;28;19912;-61
2022/03/02 04:34:55;;;;;;;;;;;128.90;1228.80;;;;;;5094501;28;19992;-61
2022/03/02 04:37:21;;;;;;;;;;;128.80;1228.80;;;;;;5094635;28;20338;-62
2022/03/02 04:39:47;;;;;;;;;;;128.80;1254.40;;;;;;5094379;28;19908;-63
2022/03/02 04:42:12;;;;;;;;;;;128.80;1254.40;;;;;;5094195;28;19923;-64
2022/03/02 04:44:38;;;;;;;;;;;128.80;1254.40;;;;;;5094143;28;20364;-64
2022/03/02 04:47:03;;;;;;;;;;;128.70;1254.40;;;;;;5093651;28;20140;-64
2022/03/02 04:49:29;;;;;;;;;;;128.70;1254.40;;;;;;5094360;28;20308;-64
2022/03/02 04:51:55;;;;;;;;;;;128.70;1254.40;;;;;;5094143;28;19916;-63
2022/03/02 04:57:05;;;;;;;;;;;128.60;1254.40;;;;;;5094523;28;19962;-64
2022/03/02 04:59:31;;;;;;;;;;;128.50;1254.40;;;;;;5094332;28;19970;-64
2022/03/02 05:01:57;;;;;;;;;;;128.50;1254.40;;;;;;5093945;28;20280;-64
2022/03/02 05:04:22;;;;;;;;;;;128.50;1280.00;;;;;;5094533;28;20015;-64
2022/03/02 05:06:48;;;;;;;;;;;128.50;1254.40;;;;;;5093930;28;20361;-64
2022/03/02 05:09:14;;;;;;;;;;;128.40;1280.00;;;;;;5094182;28;19943;-64
2022/03/02 05:11:39;;;;;;;;;;;128.20;1280.00;;;;;;5096376;28;20265;-64
2022/03/02 05:14:05;;;;;;;;;;;128.40;1280.00;;;;;;5098248;28;20234;-64
2022/03/02 05:16:30;;;;;;;;;;;128.40;1280.00;;;;;;5097939;28;19908;-69
2022/03/02 05:18:56;;;;;;;;;;;128.30;1305.60;;;;;;5098185;28;19915;-63
2022/03/02 05:21:22;;;;;;;;;;;128.30;1305.60;;;;;;5098046;28;19912;-62
2022/03/02 05:23:48;;;;;;;;;;;128.30;1280.00;;;;;;5097898;28;19968;-63
2022/03/02 05:26:13;;;;;;;;;;;128.30;1280.00;;;;;;5097916;28;20363;-63
2022/03/02 05:28:39;;;;;;;;;;;128.20;1280.00;;;;;;5097912;28;19908;-63
2022/03/02 05:31:04;;;;;;;;;;;128.20;1280.00;;;;;;5097582;28;20381;-65
2022/03/02 05:33:30;;;;;;;;;;;128.20;1280.00;;;;;;5097802;28;20327;-62
2022/03/02 05:35:55;;;;;;;;;;;128.10;1280.00;;;;;;5097664;28;19962;-62
2022/03/02 05:38:21;;;;;;;;;;;128.10;1305.60;;;;;;5097761;28;19908;-62
2022/03/02 05:40:47;;;;;;;;;;;128.10;1305.60;;;;;;5097517;28;19908;-62
2022/03/02 05:43:12;;;;;;;;;;;128.00;1305.60;;;;;;5097580;28;19953;-64
2022/03/02 05:45:38;;;;;;;;;;;128.00;1305.60;;;;;;5097437;28;19995;-64
2022/03/02 05:48:04;;;;;;;;;;;128.00;1305.60;;;;;;5097490;28;19912;-64
2022/03/02 05:50:30;;;;;;;;;;;128.00;1331.20;;;;;;5097343;28;19916;-63
2022/03/02 05:52:55;;;;;;;;;;;128.00;1331.20;;;;;;5097391;28;19919;-63
2022/03/02 05:55:21;;;;;;;;;;;103.30;1305.60;;;;;;5097724;28;19943;-63
2022/03/02 05:57:46;;;;;;;;;;;128.00;1331.20;;;;;;5097327;28;20358;-63
2022/03/02 06:00:13;;;;;;;;;;;103.30;1305.60;;;;;;5097171;28;20287;-66
2022/03/02 06:02:39;;;;;;;;;;;103.30;1305.60;;;;;;5096977;28;19915;-64
2022/03/02 06:05:05;;;;;;;;;;;103.30;1305.60;;;;;;5097045;28;19999;-65
2022/03/02 06:07:31;;;;;;;;;;;103.30;1331.20;;;;;;5096809;28;20005;-63
2022/03/02 06:09:57;;;;;;;;;;;103.30;1305.60;;;;;;5095813;28;19953;-63
2022/03/02 06:12:22;;;;;;;;;;;103.30;1305.60;;;;;;5095449;28;19922;-62
2022/03/02 06:14:48;;;;;;;;;;;103.30;1331.20;;;;;;5096802;28;19908;-63
2022/03/02 06:17:14;;;;;;;;;;;103.20;1331.20;;;;;;5096927;28;19944;-63
2022/03/02 06:19:39;;;;;;;;;;;103.30;1331.20;;;;;;5096913;28;20307;-63
2022/03/02 06:22:05;;;;;;;;;;;103.30;1331.20;;;;;;5095701;28;19912;-62
2022/03/02 06:24:31;;;;;;;;;;;128.00;1356.80;;;;;;5096614;28;19961;-62
2022/03/02 06:26:58;;;;;;;;;;;103.30;1331.20;;;;;;5096815;28;19923;-63
2022/03/02 06:29:24;;;;;;;;;;;103.30;1331.20;;;;;;5096666;28;20001;-63
2022/03/02 06:31:50;;;;;;;;;;;128.00;1356.80;;;;;;5096358;28;19920;-63
2022/03/02 06:34:15;;;;;;;;;;;103.30;1356.80;;;;;;5096420;28;19915;-63
2022/03/02 06:36:41;;;;;;;;;;;128.00;1356.80;;;;;;5096605;28;19908;-63
2022/03/02 06:39:07;;;;;;;;;;;128.00;1382.40;;;;;;5096558;28;20015;-63
2022/03/02 06:41:50;;;;;;;;;;;128.00;1382.40;;;;;;5096470;28;20425;-63
2022/03/02 06:44:45;;;;;;;;;;;128.00;1382.40;;;;;;5096180;28;20320;-63
2022/03/02 06:47:13;;;;;;;;;;;128.10;1382.40;;;;;;5053658;28;19915;-63
2022/03/02 06:49:38;;;;;;;;;;;128.10;1356.80;;;;;;5053802;28;19912;-63
2022/03/02 06:52:04;;;;;;;;;;;128.10;1382.40;;;;;;5053737;28;19978;-62
2022/03/02 06:54:31;;;;;;;;;;;128.20;1382.40;;;;;;5052267;28;20375;-62
2022/03/02 06:56:59;;;;;;;;;;;128.30;1382.40;;;;;;5051626;28;19913;-63
2022/03/02 06:59:45;;;;;;;;;;;128.30;1382.40;;;;;;5052469;28;19916;-62
2022/03/02 07:02:12;;;;;;;;;;;128.30;1382.40;;;;;;5050535;28;19959;-62
2022/03/02 07:04:39;;;;;;;;;;;128.40;1382.40;;;;;;5053341;28;20402;-62
2022/03/02 07:07:05;;;;;;;;;;;128.40;1356.80;;;;;;5052456;28;19913;-61
2022/03/02 07:09:32;;;;;;;;;;;128.50;1356.80;;;;;;5051875;28;19913;-62
2022/03/02 07:12:01;;;;;;;;;;;128.50;1382.40;;;;;;5048834;28;19921;-62
2022/03/02 07:14:30;;;;;;;;;;;128.50;1356.80;;;;;;5035401;28;20402;-62
2022/03/02 07:16:57;;;;;;;;;;;128.60;1356.80;;;;;;5052490;28;19935;-62
2022/03/02 07:19:23;;;;;;;;;;;128.50;1382.40;;;;;;5052680;28;19909;-62
2022/03/02 07:21:50;;;;;;;;;;;128.60;1382.40;;;;;;5052782;28;20366;-62
2022/03/02 07:24:19;;;;;;;;;;;128.60;1382.40;;;;;;5086806;28;19956;-70
2022/03/02 07:26:46;;;;;;;;;;;128.70;1382.40;;;;;;5095363;28;20366;-64
2022/03/02 07:29:13;;;;;;;;;;;128.80;1382.40;;;;;;5094174;28;19908;-64
2022/03/02 07:31:41;;;;;;;;;;;128.80;1356.80;;;;;;5095360;28;19923;-64
2022/03/02 07:34:09;;;;;;;;;;;128.90;1356.80;;;;;;5094934;28;20406;-64
2022/03/02 07:36:35;;;;;;;;;;;128.90;1356.80;;;;;;5095145;28;20006;-64
2022/03/02 07:39:01;;;;;;;;;;;153.60;1356.80;;;;;;5094691;28;19962;-62
2022/03/02 07:41:26;;;;;;;;;;;153.60;1356.80;;;;;;5095360;28;19915;-64
2022/03/02 07:43:53;;;;;;;;;;;153.70;1356.80;;;;;;5095294;28;19908;-63
2022/03/02 07:46:18;;;;;;;;;;;153.80;1356.80;;;;;;5095081;28;19908;-64
2022/03/02 07:48:44;;;;;;;;;;;153.90;1484.80;;;;;;5094174;28;19916;-63
2022/03/02 07:51:09;;;;;;;;;;;154.10;1459.20;;;;;;5093602;28;19999;-64
2022/03/02 07:53:42;;;;;;;;;;;154.30;1382.40;;;;;;5093499;28;19965;-63
2022/03/02 07:56:09;;;;;;;;;;;154.30;1356.80;;;;;;5091747;28;19963;-64
2022/03/02 07:58:36;;;;;;;;;;;154.40;1331.20;;;;;;5093427;28;19912;-64
2022/03/02 08:01:03;;;;;;;;;;;154.50;1331.20;;;;;;5091274;28;19919;-69
2022/03/02 08:03:30;;;;;;;;;;;154.50;1331.20;;;;;;5094748;28;19908;-63
2022/03/02 08:06:02;;;;;;;;;;;179.20;1305.60;;;;;;5094510;28;19912;-63
2022/03/02 08:08:28;;;;;;;;;;;179.40;1305.60;;;;;;5093808;28;19927;-63
2022/03/02 08:10:53;;;;;;;;;;;179.40;1280.00;;;;;;5094691;28;19912;-62
2022/03/02 08:13:19;;;;;;;;;;;179.70;1356.80;;;;;;5094499;28;19912;-62
2022/03/02 08:15:47;;;;;;;;;;;179.90;1331.20;;;;;;5094164;28;20331;-63
2022/03/02 08:18:12;;;;;;;;;;;179.80;1280.00;;;;;;5094712;28;20286;-63
2022/03/02 08:20:43;;;;;;;;;;;179.90;1280.00;;;;;;5093442;28;20003;-63
2022/03/02 08:23:09;;;;;;;;;;;180.00;1254.40;;;;;;5094345;28;19908;-63
2022/03/02 08:25:34;;;;;;;;;;;180.10;1254.40;;;;;;5094479;28;19912;-63
2022/03/02 08:28:02;;;;;;;;;;;180.10;1254.40;;;;;;5094108;28;19922;-63
2022/03/02 08:30:30;;;;;;;;;;;204.80;1228.80;;;;;;5094398;28;19916;-63
2022/03/02 08:32:57;;;;;;;;;;;204.80;1228.80;;;;;;5094303;28;20008;-63
2022/03/02 08:35:24;;;;;;;;;;;204.90;1228.80;;;;;;5094541;28;20010;-63
2022/03/02 08:37:49;;;;;;;;;;;205.00;1228.80;;;;;;5094245;28;19956;-63
2022/03/02 08:40:15;;;;;;;;;;;205.10;1228.80;;;;;;5094511;28;19931;-63
2022/03/02 08:42:41;;;;;;;;;;;205.10;1203.20;;;;;;5093748;28;19908;-63
2022/03/02 08:45:07;;;;;;;;;;;205.20;1228.80;;;;;;5093736;28;19908;-63
2022/03/02 08:47:34;;;;;;;;;;;205.20;1228.80;;;;;;5094230;28;19915;-63
2022/03/02 08:50:00;;;;;;;;;;;205.30;1203.20;;;;;;5093058;28;20014;-63
2022/03/02 08:52:26;;;;;;;;;;;205.40;1203.20;;;;;;5094357;28;20005;-63
2022/03/02 08:54:53;;;;;;;;;;;205.40;1203.20;;;;;;5092386;28;20371;-64
2022/03/02 08:57:20;;;;;;;;;;;205.50;1203.20;;;;;;5094328;28;19908;-63
2022/03/02 08:59:46;;;;;;;;;;;205.60;1177.60;;;;;;5093657;28;19909;-63
2022/03/02 09:02:16;;;;;;;;;;;205.60;1177.60;;;;;;5094164;28;19916;-63
2022/03/02 09:04:43;;;;;;;;;;;230.40;1177.60;;;;;;5094300;28;19915;-63
2022/03/02 09:07:09;;;;;;;;;;;230.40;1177.60;;;;;;5094055;28;19912;-63
2022/03/02 09:09:34;;;;;;;;;;;230.50;1177.60;;;;;;5094345;28;19916;-63
2022/03/02 09:12:00;;;;;;;;;;;230.60;1152.00;;;;;;5093953;28;20377;-63
2022/03/02 09:14:26;;;;;;;;;;;230.60;1152.00;;;;;;5094514;28;19916;-63
2022/03/02 09:16:51;;;;;;;;;;;230.70;1152.00;;;;;;5093798;28;19982;-63
2022/03/02 09:19:17;;;;;;;;;;;230.80;1152.00;;;;;;5093971;28;19915;-63
2022/03/02 09:21:43;;;;;;;;;;;230.80;1152.00;;;;;;5093904;28;19915;-63
2022/03/02 09:24:10;;;;;;;;;;;230.90;1152.00;;;;;;5093776;28;19908;-63
2022/03/02 09:26:38;;;;;;;;;;;230.90;1126.40;;;;;;5093892;28;19918;-63
2022/03/02 09:29:05;;;;;;;;;;;231.00;1126.40;;;;;;5092521;28;19954;-63
2022/03/02 09:31:32;;;;;;;;;;;231.00;1126.40;;;;;;5093753;28;19923;-63
2022/03/02 09:33:58;;;;;;;;;;;231.00;1126.40;;;;;;5093840;28;19908;-63
2022/03/02 09:36:25;;;;;;;;;;;231.00;1126.40;;;;;;5094033;28;20007;-63
2022/03/02 09:38:51;;;;;;;;;;;231.00;1126.40;;;;;;5094016;28;19909;-63
2022/03/02 09:41:21;;;;;;;;;;;231.10;1100.80;;;;;;5093950;28;19915;-63
2022/03/02 09:43:48;;;;;;;;;;;231.10;1100.80;;;;;;5094353;28;20239;-63
2022/03/02 09:46:16;;;;;;;;;;;231.20;1100.80;;;;;;5093247;28;19908;-63
2022/03/02 09:48:49;;;;;;;;;;;231.20;1100.80;;;;;;5092412;28;19908;-63
2022/03/02 09:51:20;;;;;;;;;;;231.30;1100.80;;;;;;5093854;28;19920;-63
2022/03/02 09:53:48;;;;;;;;;;;231.30;1100.80;;;;;;5093416;28;20307;-63
2022/03/02 09:56:14;;;;;;;;;;;256.00;1100.80;;;;;;5093897;28;19908;-63
2022/03/02 09:58:40;;;;;;;;;;;256.10;1100.80;;;;;;5097547;28;19908;-63
2022/03/02 10:01:08;;;;;;;;;;;256.10;1100.80;;;;;;5097162;28;19908;-64
2022/03/02 10:03:42;;;;;;;;;;;256.20;1075.20;;;;;;5096225;28;19920;-63
2022/03/02 10:06:08;;;;;;;;;;;256.30;1075.20;;;;;;5092416;28;19990;-62
2022/03/02 10:08:35;;;;;;;;;;;256.30;1049.60;;;;;;5087057;28;19970;-63
2022/03/02 10:11:05;;;;;;;;;;;256.30;1075.20;;;;;;5086494;28;19957;-63
2022/03/02 10:13:31;;;;;;;;;;;256.40;1049.60;;;;;;5085941;28;19909;-63
2022/03/02 10:15:58;;;;;;;;;;;256.40;1075.20;;;;;;5084374;28;20338;-62
2022/03/02 10:18:25;;;;;;;;;;;256.50;1049.60;;;;;;5085779;28;20218;-64
2022/03/02 10:20:53;;;;;;;;;;;256.50;1049.60;;;;;;5067441;28;19908;-63
2022/03/02 10:23:22;;;;;;;;;;;256.50;1049.60;;;;;;5083805;28;19922;-63
2022/03/02 10:25:48;;;;;;;;;;;256.60;1049.60;;;;;;5084176;28;20430;-63
2022/03/02 10:28:16;;;;;;;;;;;256.70;1049.60;;;;;;5084360;28;20010;-63
2022/03/02 10:30:42;;;;;;;;;;;256.70;1049.60;;;;;;5085977;28;19974;-63
2022/03/02 10:33:18;;;;;;;;;;;256.70;1049.60;;;;;;5084966;28;20309;-63
2022/03/02 10:35:49;;;;;;;;;;;256.70;1049.60;;;;;;5082168;28;19919;-63
2022/03/02 10:38:16;;;;;;;;;;;256.80;1024.00;;;;;;5083725;28;20387;-63
2022/03/02 10:40:42;;;;;;;;;;;256.80;1024.00;;;;;;5081493;28;19915;-63
2022/03/02 10:43:10;;;;;;;;;;;256.70;1024.00;;;;;;5084851;28;20357;-62
2022/03/02 10:45:42;;;;;;;;;;;256.80;1024.00;;;;;;5085488;28;19961;-62
2022/03/02 10:48:11;;;;;;;;;;;256.80;1024.00;;;;;;5066586;28;20282;-63
2022/03/02 10:50:37;;;;;;;;;;;256.80;1049.60;;;;;;5083448;28;19913;-63
2022/03/02 10:53:05;;;;;;;;;;;256.80;1024.00;;;;;;5085043;28;19916;-63
2022/03/02 10:55:31;;;;;;;;;;;256.80;1024.00;;;;;;5085342;28;19915;-63
2022/03/02 10:58:00;;;;;;;;;;;256.80;1049.60;;;;;;5083875;28;19909;-63
2022/03/02 11:00:25;;;;;;;;;;;256.80;1024.00;;;;;;5085224;28;19915;-63
2022/03/02 11:02:56;;;;;;;;;;;256.80;1024.00;;;;;;5084974;28;19991;-68
2022/03/02 11:05:22;;;;;;;;;;;256.90;1049.60;;;;;;5081163;28;20465;-61
2022/03/02 11:07:48;;;;;;;;;;;281.60;1075.20;;;;;;5080690;28;19920;-64
2022/03/02 11:10:16;;;;;;;;;;;281.60;1075.20;;;;;;5075036;28;20374;-64
2022/03/02 11:12:43;;;;;;;;;;;281.60;1049.60;;;;;;5075415;28;19921;-65
2022/03/02 11:15:09;;;;;;;;;;;281.60;1049.60;;;;;;5057485;28;20003;-66
2022/03/02 11:17:36;;;;;;;;;;;281.60;1024.00;;;;;;5075532;28;19923;-64
2022/03/02 11:20:09;;;;;;;;;;;282.00;1075.20;;;;;;5075283;28;19909;-63
2022/03/02 11:22:35;;;;;;;;;;;282.00;1049.60;;;;;;5075695;28;19913;-63
2022/03/02 11:25:01;;;;;;;;;;;282.00;1049.60;;;;;;5078079;28;20278;-63
2022/03/02 11:27:35;;;;;;;;;;;282.00;1049.60;;;;;;5085003;28;19915;-63
2022/03/02 11:30:11;;;;;;;;;;;282.10;1024.00;;;;;;5090957;28;19965;-64
2022/03/02 11:32:38;;;;;;;;;;;282.10;1024.00;;;;;;5076342;28;20018;-63
2022/03/02 11:35:04;;;;;;;;;;;282.10;1024.00;;;;;;5074713;28;19940;-63
2022/03/02 11:37:33;;;;;;;;;;;282.00;1024.00;;;;;;5074413;28;19955;-63
2022/03/02 11:39:59;;;;;;;;;;;282.00;1024.00;;;;;;5055833;28;19909;-63
2022/03/02 11:42:31;;;;;;;;;;;282.00;1024.00;;;;;;5074683;28;20324;-64
2022/03/02 11:44:59;;;;;;;;;;;282.00;1024.00;;;;;;5072076;28;19909;-63
2022/03/02 11:47:31;;;;;;;;;;;282.10;1024.00;;;;;;5074623;28;19913;-63
2022/03/02 11:49:57;;;;;;;;;;;282.10;1024.00;;;;;;5074500;28;20001;-65
2022/03/02 11:52:27;;;;;;;;;;;282.10;1024.00;;;;;;5074534;28;19986;-63
2022/03/02 11:54:52;;;;;;;;;;;282.10;1024.00;;;;;;5074323;28;19940;-63
2022/03/02 11:57:19;;;;;;;;;;;282.10;1024.00;;;;;;5074349;28;20415;-63
2022/03/02 11:59:45;;;;;;;;;;;282.20;1024.00;;;;;;5071395;28;20351;-63
2022/03/02 12:02:18;;;;;;;;;;;282.20;998.40;;;;;;5074115;28;19908;-63
2022/03/02 12:05:00;;;;;;;;;;;282.20;1024.00;;;;;;5073941;28;20007;-63
2022/03/02 12:07:35;;;;;;;;;;;282.20;998.40;;;;;;5053777;28;20019;-64
2022/03/02 12:10:00;;;;;;;;;;;282.30;1024.00;;;;;;5070934;28;19908;-63
2022/03/02 12:12:26;;;;;;;;;;;282.40;998.40;;;;;;5073049;28;19924;-62
2022/03/02 12:14:56;;;;;;;;;;;282.40;972.80;;;;;;5072920;28;19909;-63
2022/03/02 12:17:23;;;;;;;;;;;282.40;998.40;;;;;;5073191;28;20354;-63
2022/03/02 12:19:53;;;;;;;;;;;282.30;998.40;;;;;;5074456;28;20356;-63
2022/03/02 12:22:19;;;;;;;;;;;282.30;998.40;;;;;;5074445;28;20336;-63
2022/03/02 12:24:46;;;;;;;;;;;282.40;998.40;;;;;;5074219;28;19912;-63
2022/03/02 12:27:12;;;;;;;;;;;282.40;998.40;;;;;;5074411;28;20023;-63
2022/03/02 12:29:39;;;;;;;;;;;282.50;998.40;;;;;;5074620;28;19999;-63
2022/03/02 12:32:08;;;;;;;;;;;282.50;972.80;;;;;;5074260;28;20325;-63
2022/03/02 12:34:35;;;;;;;;;;;307.20;998.40;;;;;;5074305;28;19908;-64
2022/03/02 12:37:01;;;;;;;;;;;307.20;998.40;;;;;;5074353;28;19915;-64
2022/03/02 12:39:27;;;;;;;;;;;307.20;998.40;;;;;;5074043;28;20277;-64
2022/03/02 12:41:53;;;;;;;;;;;307.20;998.40;;;;;;5074675;28;19909;-63
2022/03/02 12:44:19;;;;;;;;;;;307.20;998.40;;;;;;5074014;28;20007;-64
2022/03/02 12:46:45;;;;;;;;;;;307.20;998.40;;;;;;5074041;28;19920;-64
2022/03/02 12:49:11;;;;;;;;;;;307.30;972.80;;;;;;5072548;28;20277;-64
2022/03/02 12:51:37;;;;;;;;;;;307.30;998.40;;;;;;5074099;28;20262;-63
2022/03/02 12:54:03;;;;;;;;;;;307.30;972.80;;;;;;5074163;28;19962;-64
2022/03/02 12:56:29;;;;;;;;;;;307.30;972.80;;;;;;5073598;28;19909;-64
2022/03/02 12:58:55;;;;;;;;;;;307.30;972.80;;;;;;5074350;28;20011;-63
2022/03/02 13:01:21;;;;;;;;;;;307.20;972.80;;;;;;5073871;28;19909;-63
2022/03/02 13:03:49;;;;;;;;;;;307.30;998.40;;;;;;5074124;28;20326;-63
2022/03/02 13:06:17;;;;;;;;;;;307.20;998.40;;;;;;5074012;28;19954;-63
2022/03/02 13:09:01;;;;;;;;;;;307.20;972.80;;;;;;5090250;28;19921;-63
2022/03/02 13:11:28;;;;;;;;;;;307.20;972.80;;;;;;5094082;28;19968;-65
2022/03/02 13:13:54;;;;;;;;;;;307.30;972.80;;;;;;5094018;28;20241;-63
2022/03/02 13:16:20;;;;;;;;;;;307.30;972.80;;;;;;5093904;28;20380;-65
2022/03/02 13:18:47;;;;;;;;;;;307.30;972.80;;;;;;5094044;28;19930;-63
2022/03/02 13:21:15;;;;;;;;;;;307.30;998.40;;;;;;5093782;28;19908;-63
2022/03/02 13:24:00;;;;;;;;;;;307.30;998.40;;;;;;5092848;28;19932;-62
2022/03/02 13:26:26;;;;;;;;;;;307.30;1024.00;;;;;;5093898;28;19912;-63
2022/03/02 13:28:59;;;;;;;;;;;307.40;998.40;;;;;;5094215;28;19961;-62
2022/03/02 13:31:25;;;;;;;;;;;307.30;998.40;;;;;;5093876;28;20121;-63
2022/03/02 13:34:05;;;;;;;;;;;307.30;972.80;;;;;;5097927;28;19965;-61
2022/03/02 13:36:38;;;;;;;;;;;307.30;998.40;;;;;;5097782;28;19915;-62
2022/03/02 13:39:14;;;;;;;;;;;307.40;998.40;;;;;;5097919;28;19909;-63
2022/03/02 13:41:40;;;;;;;;;;;307.30;972.80;;;;;;5097364;28;19994;-63
2022/03/02 13:44:24;;;;;;;;;;;307.30;972.80;;;;;;5096366;28;19912;-64